createdAt,value
2022-10-13T00:03:50.553Z,65.03
2022-10-13T00:08:54.466Z,65.96
2022-10-13T00:13:59.449Z,63.86
2022-10-13T00:19:02.232Z,62.56
2022-10-13T00:24:04.813Z,61.48
2022-10-13T00:29:07.711Z,60.52
2022-10-13T00:34:10.211Z,59.60
2022-10-13T00:39:12.716Z,57.45
2022-10-13T00:44:52.883Z,58.86
2022-10-13T00:49:55.824Z,60.11
2022-10-13T00:54:59.549Z,66.91
2022-10-13T01:00:03.385Z,66.97
2022-10-13T01:05:07.874Z,65.19
2022-10-13T01:10:10.456Z,63.53
2022-10-13T01:15:22.520Z,63.32
2022-10-13T01:21:02.793Z,61.63
2022-10-13T01:26:20.630Z,61.16
2022-10-13T01:32:01.667Z,60.82
2022-10-13T01:37:41.630Z,60.26
2022-10-13T01:43:03.341Z,60.32
2022-10-13T01:48:07.326Z,60.16
2022-10-13T01:53:11.379Z,57.05
2022-10-13T01:58:13.818Z,58.61
2022-10-13T02:03:26.393Z,60.44
2022-10-13T02:08:40.305Z,66.86
2022-10-13T02:14:24.651Z,66.72
2022-10-13T02:19:27.588Z,64.81
2022-10-13T02:24:30.188Z,63.63
2022-10-13T02:29:32.845Z,63.81
2022-10-13T02:34:35.253Z,62.84
2022-10-13T02:39:37.716Z,61.80
2022-10-13T02:44:40.110Z,60.98
2022-10-13T02:49:42.740Z,60.75
2022-10-13T02:54:45.256Z,60.40
2022-10-13T02:59:47.946Z,60.49
2022-10-13T03:04:50.791Z,60.14
2022-10-13T03:09:53.561Z,59.64
2022-10-13T03:14:56.034Z,57.48
2022-10-13T03:19:58.499Z,58.64
2022-10-13T03:25:00.893Z,61.02
2022-10-13T03:30:03.924Z,66.54
2022-10-13T03:35:07.478Z,67.03
2022-10-13T03:40:10.481Z,64.71
2022-10-13T03:45:12.979Z,63.30
2022-10-13T03:50:15.633Z,62.15
2022-10-13T03:55:18.273Z,61.85
2022-10-13T04:00:20.780Z,61.55
2022-10-13T04:05:23.193Z,61.27
2022-10-13T04:10:25.979Z,60.69
2022-10-13T04:15:28.516Z,60.37
2022-10-13T04:20:31.039Z,60.12
2022-10-13T04:25:38.373Z,59.55
2022-10-13T04:30:43.706Z,57.69
2022-10-13T04:35:49.536Z,59.10
2022-10-13T04:40:51.979Z,60.43
2022-10-13T04:46:00.549Z,66.58
2022-10-13T04:51:08.157Z,67.67
2022-10-13T04:56:13.931Z,65.99
2022-10-13T05:01:22.600Z,64.48
2022-10-13T05:06:28.376Z,62.94
2022-10-13T05:11:32.004Z,61.91
2022-10-13T05:16:34.429Z,61.16
2022-10-13T05:21:37.029Z,60.54
2022-10-13T05:26:40.356Z,60.25
2022-10-13T05:31:42.843Z,59.97
2022-10-13T05:36:46.517Z,59.70
2022-10-13T05:41:51.785Z,57.18
2022-10-13T05:46:54.263Z,58.55
2022-10-13T05:52:02.263Z,60.37
2022-10-13T05:57:30.746Z,66.33
2022-10-13T06:02:40.702Z,66.79
2022-10-13T06:07:44.403Z,64.96
2022-10-13T06:12:47.009Z,63.30
2022-10-13T06:17:49.386Z,61.93
2022-10-13T06:22:51.832Z,61.16
2022-10-13T06:27:54.243Z,60.71
2022-10-13T06:32:56.881Z,59.73
2022-10-13T06:37:59.712Z,57.37
2022-10-13T06:43:05.544Z,58.18
2022-10-13T06:48:11.032Z,63.25
2022-10-13T06:53:15.020Z,64.35
2022-10-13T06:58:17.454Z,62.77
2022-10-13T07:03:20.871Z,61.24
2022-10-13T07:08:24.022Z,59.60
2022-10-13T07:13:26.555Z,56.83
2022-10-13T07:18:29.096Z,58.26
2022-10-13T07:23:31.515Z,59.37
2022-10-13T07:28:34.283Z,64.56
2022-10-13T07:33:36.860Z,63.38
2022-10-13T07:38:43.635Z,60.78
2022-10-13T07:43:46.696Z,56.81
2022-10-13T07:48:49.231Z,57.62
2022-10-13T07:53:52.300Z,61.19
2022-10-13T07:58:54.811Z,61.40
2022-10-13T08:03:57.252Z,59.01
2022-10-13T08:09:00.546Z,56.76
2022-10-13T08:14:03.802Z,62.20
2022-10-13T08:19:06.865Z,57.93
2022-10-13T08:24:12.560Z,57.16
2022-10-13T08:29:23.814Z,57.84
2022-10-13T08:34:26.817Z,63.34
2022-10-13T08:39:29.806Z,61.62
2022-10-13T08:50:07.002Z,57.60
2022-10-13T08:55:20.231Z,60.25
2022-10-13T09:00:22.861Z,60.11
2022-10-13T09:05:40.013Z,59.90
2022-10-13T09:10:51.057Z,58.22
2022-10-13T09:15:53.945Z,58.80
2022-10-13T09:21:20.684Z,59.08
2022-10-13T09:26:25.612Z,59.12
2022-10-13T09:31:30.458Z,59.03
2022-10-13T09:36:33.933Z,58.88
2022-10-13T09:41:36.344Z,58.94
2022-10-13T09:46:59.148Z,59.11
2022-10-13T09:52:28.280Z,59.37
2022-10-13T09:57:51.464Z,58.58
2022-10-13T10:02:59.815Z,59.50
2022-10-13T10:08:33.735Z,59.15
2022-10-13T10:13:47.140Z,59.30
2022-10-13T10:18:58.909Z,58.54
2022-10-13T10:24:39.238Z,57.56
2022-10-13T10:30:20.539Z,56.71
2022-10-13T10:36:00.943Z,56.11
2022-10-13T10:41:20.471Z,55.40
2022-10-13T10:46:25.866Z,54.27
2022-10-13T10:51:36.657Z,54.77
2022-10-13T10:56:42.766Z,54.75
2022-10-13T11:02:14.682Z,54.15
2022-10-13T11:07:23.237Z,54.09
2022-10-13T11:12:45.031Z,54.26
2022-10-13T11:17:47.621Z,53.68
2022-10-13T11:23:08.656Z,53.80
2022-10-13T11:28:49.036Z,54.09
2022-10-13T11:33:54.948Z,53.49
2022-10-13T11:44:49.872Z,53.84
2022-10-13T11:50:07.802Z,53.83
2022-10-13T11:55:37.801Z,53.48
2022-10-13T12:00:50.366Z,53.85
2022-10-13T12:05:53.449Z,53.50
2022-10-13T12:10:58.157Z,53.67
2022-10-13T12:16:08.239Z,53.29
2022-10-13T12:21:14.660Z,53.81
2022-10-13T12:26:24.145Z,53.74
2022-10-13T12:31:48.949Z,53.67
2022-10-13T12:36:56.382Z,53.51
2022-10-13T12:42:02.043Z,53.98
2022-10-13T12:47:04.838Z,54.13
2022-10-13T12:52:19.986Z,54.05
2022-10-13T12:57:38.006Z,53.68
2022-10-13T13:02:41.373Z,53.24
2022-10-13T13:07:52.740Z,53.15
2022-10-13T13:12:56.124Z,52.91
2022-10-13T13:18:29.374Z,52.94
2022-10-13T13:23:34.727Z,52.57
2022-10-13T13:28:38.623Z,52.34
2022-10-13T13:33:41.260Z,52.34
2022-10-13T13:38:44.090Z,52.39
2022-10-13T13:43:46.833Z,52.52
2022-10-13T13:48:49.763Z,52.37
2022-10-13T13:53:52.242Z,52.70
2022-10-13T13:58:54.678Z,51.22
2022-10-13T14:03:57.100Z,51.36
2022-10-13T14:08:59.743Z,51.60
2022-10-13T14:14:02.382Z,51.27
2022-10-13T14:19:04.847Z,51.39
2022-10-13T14:24:08.019Z,51.61
2022-10-13T14:29:10.682Z,52.02
2022-10-13T14:34:13.377Z,50.88
2022-10-13T14:39:16.077Z,50.79
2022-10-13T14:44:18.613Z,50.76
2022-10-13T14:49:21.058Z,50.82
2022-10-13T14:54:24.126Z,51.24
2022-10-13T14:59:26.677Z,51.81
2022-10-13T15:04:29.090Z,52.31
2022-10-13T15:09:45.035Z,52.45
2022-10-13T15:14:54.121Z,52.23
2022-10-13T15:19:56.506Z,52.31
2022-10-13T15:24:59.088Z,52.62
2022-10-13T15:30:01.841Z,53.01
2022-10-13T15:35:06.209Z,53.49
2022-10-13T15:40:09.441Z,54.07
2022-10-13T15:45:12.244Z,54.76
2022-10-13T15:50:15.119Z,55.06
2022-10-13T15:55:18.959Z,55.23
2022-10-13T16:00:21.503Z,56.47
2022-10-13T16:05:24.840Z,56.81
2022-10-13T16:10:27.256Z,57.24
2022-10-13T16:15:30.484Z,57.81
2022-10-13T16:20:35.204Z,58.46
2022-10-13T16:25:39.302Z,58.90
2022-10-13T16:30:43.016Z,59.46
2022-10-13T16:35:45.464Z,60.41
2022-10-13T16:40:47.906Z,60.39
2022-10-13T16:46:12.674Z,60.63
2022-10-13T16:51:21.745Z,60.73
2022-10-13T16:56:25.807Z,61.54
2022-10-13T17:01:30.126Z,68.62
2022-10-13T17:06:38.632Z,67.49
2022-10-13T17:11:43.663Z,62.66
2022-10-13T17:16:46.086Z,57.68
2022-10-13T17:21:48.895Z,56.68
2022-10-13T17:26:51.569Z,57.56
2022-10-13T17:31:54.057Z,58.34
2022-10-13T17:36:56.548Z,58.94
2022-10-13T17:41:59.180Z,60.38
2022-10-13T17:47:01.683Z,66.73
2022-10-13T17:52:04.230Z,66.74
2022-10-13T17:57:06.667Z,63.14
2022-10-13T18:02:09.867Z,60.45
2022-10-13T18:07:12.456Z,56.59
2022-10-13T18:12:14.932Z,56.83
2022-10-13T18:17:17.658Z,58.45
2022-10-13T18:22:20.296Z,59.49
2022-10-13T18:27:23.105Z,60.07
2022-10-13T18:32:25.890Z,60.69
2022-10-13T18:37:28.504Z,67.32
2022-10-13T18:42:31.405Z,67.55
2022-10-13T18:47:34.515Z,64.29
2022-10-13T18:52:37.054Z,61.95
2022-10-13T18:57:39.481Z,60.42
2022-10-13T19:02:41.935Z,56.82
2022-10-13T19:07:44.463Z,56.81
2022-10-13T19:12:46.880Z,58.18
2022-10-13T19:17:49.310Z,59.65
2022-10-13T19:22:52.757Z,60.20
2022-10-13T19:27:55.189Z,67.48
2022-10-13T19:32:57.790Z,67.84
2022-10-13T19:38:00.240Z,64.45
2022-10-13T19:43:03.385Z,62.53
2022-10-13T19:48:05.919Z,60.73
2022-10-13T19:53:10.251Z,57.16
2022-10-13T19:58:16.899Z,57.22
2022-10-13T20:03:19.686Z,58.95
2022-10-13T20:08:22.396Z,59.88
2022-10-13T20:13:25.068Z,65.83
2022-10-13T20:18:27.439Z,67.49
2022-10-13T20:23:30.523Z,64.78
2022-10-13T20:28:33.567Z,61.97
2022-10-13T20:33:36.341Z,60.42
2022-10-13T20:38:39.364Z,56.95
2022-10-13T20:43:41.825Z,56.96
2022-10-13T20:49:09.284Z,58.50
2022-10-13T20:54:07.769Z,59.98
2022-10-13T20:59:14.471Z,65.83
2022-10-13T21:04:17.035Z,67.29
2022-10-13T21:09:19.508Z,64.41
2022-10-13T21:14:22.075Z,62.31
2022-10-13T21:19:24.669Z,60.60
2022-10-13T21:24:27.422Z,55.75
2022-10-13T21:29:30.009Z,55.55
2022-10-13T21:34:32.479Z,57.48
2022-10-13T21:39:35.370Z,59.68
2022-10-13T21:44:37.878Z,65.76
2022-10-13T21:49:40.530Z,66.67
2022-10-13T21:54:43.013Z,63.71
2022-10-13T21:59:45.671Z,61.83
2022-10-13T22:04:49.594Z,60.24
2022-10-13T22:09:52.228Z,56.50
2022-10-13T22:14:54.757Z,57.27
2022-10-13T22:19:57.437Z,57.77
2022-10-13T22:25:00.405Z,59.73
2022-10-13T22:30:02.957Z,66.72
2022-10-13T22:35:05.744Z,66.35
2022-10-13T22:40:09.036Z,63.21
2022-10-13T22:45:11.611Z,61.07
2022-10-13T22:50:14.122Z,57.36
2022-10-13T22:55:16.990Z,57.34
2022-10-13T23:00:19.744Z,58.84
2022-10-13T23:05:22.241Z,60.22
2022-10-13T23:10:24.760Z,66.25
2022-10-13T23:15:27.180Z,68.01
2022-10-13T23:20:29.846Z,65.64
2022-10-13T23:25:37.415Z,61.75
2022-10-13T23:30:39.851Z,56.19
2022-10-13T23:35:42.888Z,56.95
2022-10-13T23:40:45.459Z,59.05
2022-10-13T23:45:47.992Z,60.00
2022-10-13T23:50:50.494Z,66.14
2022-10-13T23:55:53.177Z,67.68
